sensor_id;sensor_type;location;lat;lon;timestamp;pressure;altitude;pressure_sealevel;temperature;humidity
62694;BME280;48759;52.544;13.418;2023-01-29T00:01:03;102048.13;;;-0.04;100.00
62694;BME280;48759;52.544;13.418;2023-01-29T00:03:30;102044.78;;;-0.07;100.00
62694;BME280;48759;52.544;13.418;2023-01-29T00:05:57;102048.47;;;0.05;100.00
62694;BME280;48759;52.544;13.418;2023-01-29T00:08:25;102045.72;;;-0.21;100.00
62694;BME280;48759;52.544;13.418;2023-01-29T00:10:52;102040.06;;;-0.30;100.00
62694;BME280;48759;52.544;13.418;2023-01-29T00:13:25;102049.00;;;-0.43;100.00
62694;BME280;48759;52.544;13.418;2023-01-29T00:15:52;102053.31;;;-0.13;100.00
62694;BME280;48759;52.544;13.418;2023-01-29T00:18:20;102042.19;;;-0.89;100.00
62694;BME280;48759;52.544;13.418;2023-01-29T00:20:46;102041.56;;;-0.39;100.00
62694;BME280;48759;52.544;13.418;2023-01-29T00:23:13;102043.63;;;-0.30;100.00
62694;BME280;48759;52.544;13.418;2023-01-29T00:25:41;102042.16;;;-0.21;100.00
62694;BME280;48759;52.544;13.418;2023-01-29T00:28:08;102039.28;;;-0.32;100.00
62694;BME280;48759;52.544;13.418;2023-01-29T00:30:35;102037.03;;;-0.26;100.00
62694;BME280;48759;52.544;13.418;2023-01-29T00:33:03;102041.81;;;-0.17;100.00
62694;BME280;48759;52.544;13.418;2023-01-29T00:35:30;102036.78;;;-0.36;100.00
62694;BME280;48759;52.544;13.418;2023-01-29T00:37:57;102035.41;;;-0.28;100.00
62694;BME280;48759;52.544;13.418;2023-01-29T00:40:25;102021.53;;;0.16;100.00
62694;BME280;48759;52.544;13.418;2023-01-29T00:42:53;102026.25;;;-0.13;100.00
62694;BME280;48759;52.544;13.418;2023-01-29T00:45:37;102013.84;;;0.10;100.00
62694;BME280;48759;52.544;13.418;2023-01-29T00:48:04;102004.88;;;0.34;100.00
62694;BME280;48759;52.544;13.418;2023-01-29T00:50:31;102012.34;;;0.18;100.00
62694;BME280;48759;52.544;13.418;2023-01-29T00:52:57;102007.03;;;0.17;100.00
62694;BME280;48759;52.544;13.418;2023-01-29T00:55:24;102004.41;;;0.40;100.00
62694;BME280;48759;52.544;13.418;2023-01-29T00:57:52;102010.69;;;0.16;100.00
62694;BME280;48759;52.544;13.418;2023-01-29T01:00:19;102023.34;;;0.28;100.00
62694;BME280;48759;52.544;13.418;2023-01-29T01:02:46;102015.63;;;-0.16;100.00
62694;BME280;48759;52.544;13.418;2023-01-29T01:05:30;102010.47;;;-0.07;100.00
62694;BME280;48759;52.544;13.418;2023-01-29T01:07:57;102022.69;;;-0.14;100.00
62694;BME280;48759;52.544;13.418;2023-01-29T01:10:29;102015.44;;;-0.01;100.00
62694;BME280;48759;52.544;13.418;2023-01-29T01:12:58;102018.44;;;-0.18;100.00
62694;BME280;48759;52.544;13.418;2023-01-29T01:15:27;102017.81;;;-0.09;100.00
62694;BME280;48759;52.544;13.418;2023-01-29T01:17:55;102016.22;;;0.01;100.00
62694;BME280;48759;52.544;13.418;2023-01-29T01:20:23;102019.13;;;0.11;100.00
62694;BME280;48759;52.544;13.418;2023-01-29T01:22:49;102012.09;;;0.09;100.00
62694;BME280;48759;52.544;13.418;2023-01-29T01:25:16;102021.28;;;-0.07;100.00
62694;BME280;48759;52.544;13.418;2023-01-29T01:27:43;102026.88;;;-0.22;100.00
62694;BME280;48759;52.544;13.418;2023-01-29T01:30:13;102020.84;;;-0.01;100.00
62694;BME280;48759;52.544;13.418;2023-01-29T01:32:41;102018.09;;;-0.26;100.00
62694;BME280;48759;52.544;13.418;2023-01-29T01:35:09;102006.38;;;0.26;100.00
62694;BME280;48759;52.544;13.418;2023-01-29T01:37:36;102012.63;;;0.14;100.00
62694;BME280;48759;52.544;13.418;2023-01-29T01:40:04;102017.19;;;0.00;100.00
62694;BME280;48759;52.544;13.418;2023-01-29T01:42:37;102014.69;;;-0.03;100.00
62694;BME280;48759;52.544;13.418;2023-01-29T01:45:13;102024.63;;;-0.16;100.00
62694;BME280;48759;52.544;13.418;2023-01-29T01:47:46;102020.03;;;-0.28;100.00
62694;BME280;48759;52.544;13.418;2023-01-29T01:50:17;102032.19;;;-0.21;100.00
62694;BME280;48759;52.544;13.418;2023-01-29T01:52:48;102026.22;;;-0.26;100.00
62694;BME280;48759;52.544;13.418;2023-01-29T01:55:19;102022.00;;;-0.30;100.00
62694;BME280;48759;52.544;13.418;2023-01-29T01:57:51;102016.59;;;-0.17;100.00
62694;BME280;48759;52.544;13.418;2023-01-29T02:00:19;102017.84;;;0.17;100.00
62694;BME280;48759;52.544;13.418;2023-01-29T02:02:49;102009.00;;;-0.25;100.00
62694;BME280;48759;52.544;13.418;2023-01-29T02:05:34;101994.88;;;-0.03;100.00
62694;BME280;48759;52.544;13.418;2023-01-29T02:08:29;101994.88;;;-0.16;100.00
62694;BME280;48759;52.544;13.418;2023-01-29T02:11:15;101984.94;;;0.10;100.00
62694;BME280;48759;52.544;13.418;2023-01-29T02:13:43;101984.47;;;0.54;100.00
62694;BME280;48759;52.544;13.418;2023-01-29T02:16:10;101993.38;;;0.31;100.00
62694;BME280;48759;52.544;13.418;2023-01-29T02:18:38;101999.75;;;0.30;100.00
62694;BME280;48759;52.544;13.418;2023-01-29T02:21:24;101988.84;;;0.19;100.00
62694;BME280;48759;52.544;13.418;2023-01-29T02:24:29;101981.88;;;0.40;100.00
62694;BME280;48759;52.544;13.418;2023-01-29T02:27:04;101981.44;;;0.21;100.00
62694;BME280;48759;52.544;13.418;2023-01-29T02:29:41;101971.94;;;0.40;100.00
62694;BME280;48759;52.544;13.418;2023-01-29T02:32:16;101976.69;;;0.24;100.00
62694;BME280;48759;52.544;13.418;2023-01-29T02:34:53;101980.59;;;0.33;100.00
62694;BME280;48759;52.544;13.418;2023-01-29T02:37:49;101981.00;;;0.52;100.00
62694;BME280;48759;52.544;13.418;2023-01-29T02:40:27;101986.41;;;0.52;100.00
62694;BME280;48759;52.544;13.418;2023-01-29T02:43:03;101985.91;;;0.22;100.00
62694;BME280;48759;52.544;13.418;2023-01-29T02:45:37;101987.97;;;0.18;100.00
62694;BME280;48759;52.544;13.418;2023-01-29T02:48:11;101986.41;;;0.27;100.00
62694;BME280;48759;52.544;13.418;2023-01-29T02:50:42;101979.94;;;-0.09;100.00
62694;BME280;48759;52.544;13.418;2023-01-29T02:53:14;101975.84;;;0.24;100.00
62694;BME280;48759;52.544;13.418;2023-01-29T02:55:45;101967.38;;;0.41;100.00
62694;BME280;48759;52.544;13.418;2023-01-29T02:58:17;101972.88;;;0.27;100.00
62694;BME280;48759;52.544;13.418;2023-01-29T03:00:48;101968.78;;;0.47;100.00
62694;BME280;48759;52.544;13.418;2023-01-29T03:03:20;101974.84;;;-0.13;100.00
62694;BME280;48759;52.544;13.418;2023-01-29T03:05:54;101970.72;;;0.57;100.00
62694;BME280;48759;52.544;13.418;2023-01-29T03:08:28;101964.44;;;0.31;100.00
62694;BME280;48759;52.544;13.418;2023-01-29T03:11:03;101962.94;;;0.40;100.00
62694;BME280;48759;52.544;13.418;2023-01-29T03:13:35;101966.06;;;0.47;100.00
62694;BME280;48759;52.544;13.418;2023-01-29T03:16:09;101953.94;;;0.39;100.00
62694;BME280;48759;52.544;13.418;2023-01-29T03:18:39;101959.19;;;0.66;100.00
62694;BME280;48759;52.544;13.418;2023-01-29T03:21:13;101969.00;;;0.06;100.00
62694;BME280;48759;52.544;13.418;2023-01-29T03:23:59;101955.69;;;0.40;100.00
62694;BME280;48759;52.544;13.418;2023-01-29T03:26:43;101955.66;;;0.28;100.00
62694;BME280;48759;52.544;13.418;2023-01-29T03:29:29;101959.97;;;0.43;100.00
62694;BME280;48759;52.544;13.418;2023-01-29T03:32:16;101956.44;;;0.30;100.00
62694;BME280;48759;52.544;13.418;2023-01-29T03:34:47;101942.25;;;0.14;100.00
62694;BME280;48759;52.544;13.418;2023-01-29T03:37:19;101933.59;;;0.34;100.00
62694;BME280;48759;52.544;13.418;2023-01-29T03:39:47;101939.25;;;0.18;100.00
62694;BME280;48759;52.544;13.418;2023-01-29T03:42:18;101922.22;;;0.03;100.00
62694;BME280;48759;52.544;13.418;2023-01-29T03:44:54;101925.81;;;0.17;100.00
62694;BME280;48759;52.544;13.418;2023-01-29T03:47:32;101920.94;;;-0.04;100.00
62694;BME280;48759;52.544;13.418;2023-01-29T03:50:04;101911.41;;;0.16;100.00
62694;BME280;48759;52.544;13.418;2023-01-29T03:52:39;101906.09;;;0.15;100.00
62694;BME280;48759;52.544;13.418;2023-01-29T03:55:14;101907.56;;;0.44;100.00
62694;BME280;48759;52.544;13.418;2023-01-29T03:57:44;101892.78;;;0.24;100.00
62694;BME280;48759;52.544;13.418;2023-01-29T04:00:18;101894.56;;;0.36;100.00
62694;BME280;48759;52.544;13.418;2023-01-29T04:02:53;101885.09;;;0.06;100.00
62694;BME280;48759;52.544;13.418;2023-01-29T04:05:24;101876.31;;;0.15;100.00
62694;BME280;48759;52.544;13.418;2023-01-29T04:07:56;101878.81;;;0.05;100.00
62694;BME280;48759;52.544;13.418;2023-01-29T04:10:28;101871.03;;;0.00;100.00
62694;BME280;48759;52.544;13.418;2023-01-29T04:12:57;101871.00;;;0.26;100.00
62694;BME280;48759;52.544;13.418;2023-01-29T04:15:29;101865.97;;;0.45;100.00
62694;BME280;48759;52.544;13.418;2023-01-29T04:17:59;101854.25;;;0.45;100.00
62694;BME280;48759;52.544;13.418;2023-01-29T04:20:29;101851.97;;;0.51;100.00
62694;BME280;48759;52.544;13.418;2023-01-29T04:22:55;101857.34;;;0.27;100.00
62694;BME280;48759;52.544;13.418;2023-01-29T04:25:25;101857.13;;;0.30;100.00
62694;BME280;48759;52.544;13.418;2023-01-29T04:28:02;101856.94;;;0.57;100.00
62694;BME280;48759;52.544;13.418;2023-01-29T04:30:40;101859.56;;;-0.03;100.00
62694;BME280;48759;52.544;13.418;2023-01-29T04:33:20;101841.13;;;0.15;100.00
62694;BME280;48759;52.544;13.418;2023-01-29T04:36:04;101842.56;;;0.08;100.00
62694;BME280;48759;52.544;13.418;2023-01-29T04:38:45;101838.72;;;0.23;100.00
62694;BME280;48759;52.544;13.418;2023-01-29T04:41:20;101833.72;;;0.42;100.00
62694;BME280;48759;52.544;13.418;2023-01-29T04:43:58;101846.44;;;0.16;100.00
62694;BME280;48759;52.544;13.418;2023-01-29T04:46:30;101847.94;;;0.57;100.00
62694;BME280;48759;52.544;13.418;2023-01-29T04:49:12;101846.94;;;0.34;100.00
62694;BME280;48759;52.544;13.418;2023-01-29T04:51:48;101841.97;;;0.28;100.00
62694;BME280;48759;52.544;13.418;2023-01-29T04:54:23;101845.72;;;0.38;100.00
62694;BME280;48759;52.544;13.418;2023-01-29T04:56:57;101849.97;;;0.42;100.00
62694;BME280;48759;52.544;13.418;2023-01-29T04:59:32;101849.47;;;0.24;100.00
62694;BME280;48759;52.544;13.418;2023-01-29T05:02:01;101863.63;;;0.28;100.00
62694;BME280;48759;52.544;13.418;2023-01-29T05:04:32;101849.50;;;0.48;100.00
62694;BME280;48759;52.544;13.418;2023-01-29T05:07:01;101857.06;;;0.43;100.00
62694;BME280;48759;52.544;13.418;2023-01-29T05:09:29;101857.28;;;0.03;100.00
62694;BME280;48759;52.544;13.418;2023-01-29T05:11:57;101860.28;;;0.12;100.00
62694;BME280;48759;52.544;13.418;2023-01-29T05:14:26;101858.91;;;0.19;100.00
62694;BME280;48759;52.544;13.418;2023-01-29T05:16:55;101859.19;;;0.27;100.00
62694;BME280;48759;52.544;13.418;2023-01-29T05:19:23;101853.69;;;0.16;100.00
62694;BME280;48759;52.544;13.418;2023-01-29T05:21:50;101851.53;;;0.08;100.00
62694;BME280;48759;52.544;13.418;2023-01-29T05:24:19;101865.69;;;0.24;100.00
62694;BME280;48759;52.544;13.418;2023-01-29T05:26:47;101863.09;;;0.23;100.00
62694;BME280;48759;52.544;13.418;2023-01-29T05:29:32;101859.78;;;0.07;100.00
62694;BME280;48759;52.544;13.418;2023-01-29T05:31:59;101864.75;;;-0.00;100.00
62694;BME280;48759;52.544;13.418;2023-01-29T05:34:25;101857.59;;;0.12;100.00
62694;BME280;48759;52.544;13.418;2023-01-29T05:36:54;101862.34;;;0.21;100.00
62694;BME280;48759;52.544;13.418;2023-01-29T05:39:21;101859.47;;;-0.14;100.00
62694;BME280;48759;52.544;13.418;2023-01-29T05:41:47;101863.91;;;-0.26;100.00
62694;BME280;48759;52.544;13.418;2023-01-29T05:44:14;101858.28;;;-0.23;100.00
62694;BME280;48759;52.544;13.418;2023-01-29T05:46:41;101854.81;;;-0.25;100.00
62694;BME280;48759;52.544;13.418;2023-01-29T05:49:08;101861.31;;;-0.15;100.00
62694;BME280;48759;52.544;13.418;2023-01-29T05:51:34;101858.28;;;-0.48;100.00
62694;BME280;48759;52.544;13.418;2023-01-29T05:54:03;101863.16;;;-0.41;100.00
62694;BME280;48759;52.544;13.418;2023-01-29T05:56:30;101866.72;;;-0.40;100.00
62694;BME280;48759;52.544;13.418;2023-01-29T05:58:56;101872.47;;;-0.07;100.00
62694;BME280;48759;52.544;13.418;2023-01-29T06:01:24;101880.00;;;0.14;100.00
62694;BME280;48759;52.544;13.418;2023-01-29T06:03:51;101868.66;;;-0.04;100.00
62694;BME280;48759;52.544;13.418;2023-01-29T06:06:18;101867.16;;;-0.46;100.00
62694;BME280;48759;52.544;13.418;2023-01-29T06:08:46;101881.63;;;0.03;100.00
62694;BME280;48759;52.544;13.418;2023-01-29T06:11:14;101883.06;;;0.09;100.00
62694;BME280;48759;52.544;13.418;2023-01-29T06:13:42;101885.34;;;0.03;100.00
62694;BME280;48759;52.544;13.418;2023-01-29T06:16:10;101882.84;;;-0.01;100.00
62694;BME280;48759;52.544;13.418;2023-01-29T06:18:38;101884.16;;;-0.06;100.00
62694;BME280;48759;52.544;13.418;2023-01-29T06:21:07;101887.28;;;0.00;100.00
62694;BME280;48759;52.544;13.418;2023-01-29T06:23:34;101887.50;;;0.10;100.00
62694;BME280;48759;52.544;13.418;2023-01-29T06:26:02;101883.59;;;0.01;100.00
62694;BME280;48759;52.544;13.418;2023-01-29T06:28:30;101862.41;;;-0.30;100.00
62694;BME280;48759;52.544;13.418;2023-01-29T06:30:58;101876.63;;;0.23;100.00
62694;BME280;48759;52.544;13.418;2023-01-29T06:33:24;101871.47;;;0.07;100.00
62694;BME280;48759;52.544;13.418;2023-01-29T06:35:55;101875.56;;;0.13;100.00
62694;BME280;48759;52.544;13.418;2023-01-29T06:38:22;101871.69;;;0.17;100.00
62694;BME280;48759;52.544;13.418;2023-01-29T06:40:49;101866.25;;;0.17;100.00
62694;BME280;48759;52.544;13.418;2023-01-29T06:43:16;101878.38;;;0.24;100.00
62694;BME280;48759;52.544;13.418;2023-01-29T06:45:47;101874.84;;;0.47;100.00
62694;BME280;48759;52.544;13.418;2023-01-29T06:48:14;101875.16;;;0.19;100.00
62694;BME280;48759;52.544;13.418;2023-01-29T06:50:41;101878.56;;;0.33;100.00
62694;BME280;48759;52.544;13.418;2023-01-29T06:53:08;101887.09;;;0.40;100.00
62694;BME280;48759;52.544;13.418;2023-01-29T06:55:34;101886.75;;;0.45;100.00
62694;BME280;48759;52.544;13.418;2023-01-29T06:58:04;101883.25;;;0.19;100.00
62694;BME280;48759;52.544;13.418;2023-01-29T07:00:32;101888.19;;;0.37;100.00
62694;BME280;48759;52.544;13.418;2023-01-29T07:03:00;101882.66;;;0.39;100.00
62694;BME280;48759;52.544;13.418;2023-01-29T07:05:27;101875.34;;;0.16;100.00
62694;BME280;48759;52.544;13.418;2023-01-29T07:07:54;101873.06;;;0.22;100.00
62694;BME280;48759;52.544;13.418;2023-01-29T07:10:20;101864.25;;;0.68;100.00
62694;BME280;48759;52.544;13.418;2023-01-29T07:12:47;101879.13;;;0.62;100.00
62694;BME280;48759;52.544;13.418;2023-01-29T07:15:14;101873.63;;;0.51;100.00
62694;BME280;48759;52.544;13.418;2023-01-29T07:17:44;101864.34;;;0.66;100.00
62694;BME280;48759;52.544;13.418;2023-01-29T07:20:22;101861.94;;;0.14;100.00
62694;BME280;48759;52.544;13.418;2023-01-29T07:22:48;101858.31;;;0.63;100.00
62694;BME280;48759;52.544;13.418;2023-01-29T07:25:15;101867.03;;;0.19;100.00
62694;BME280;48759;52.544;13.418;2023-01-29T07:27:42;101877.19;;;0.52;100.00
62694;BME280;48759;52.544;13.418;2023-01-29T07:30:10;101887.53;;;0.47;100.00
62694;BME280;48759;52.544;13.418;2023-01-29T07:32:36;101876.59;;;0.48;100.00
62694;BME280;48759;52.544;13.418;2023-01-29T07:35:04;101882.22;;;0.45;100.00
62694;BME280;48759;52.544;13.418;2023-01-29T07:37:32;101890.06;;;0.24;100.00
62694;BME280;48759;52.544;13.418;2023-01-29T07:39:59;101870.88;;;0.40;100.00
62694;BME280;48759;52.544;13.418;2023-01-29T07:42:25;101859.31;;;0.86;100.00
62694;BME280;48759;52.544;13.418;2023-01-29T07:44:52;101862.41;;;1.16;100.00
62694;BME280;48759;52.544;13.418;2023-01-29T07:47:18;101861.25;;;0.84;100.00
62694;BME280;48759;52.544;13.418;2023-01-29T07:49:45;101855.84;;;0.84;100.00
62694;BME280;48759;52.544;13.418;2023-01-29T07:52:12;101837.63;;;0.62;100.00
62694;BME280;48759;52.544;13.418;2023-01-29T07:54:40;101835.00;;;0.97;100.00
62694;BME280;48759;52.544;13.418;2023-01-29T07:57:06;101829.91;;;0.92;100.00
62694;BME280;48759;52.544;13.418;2023-01-29T07:59:33;101842.69;;;1.14;100.00
62694;BME280;48759;52.544;13.418;2023-01-29T08:02:00;101855.91;;;1.19;100.00
62694;BME280;48759;52.544;13.418;2023-01-29T08:04:26;101846.63;;;1.10;100.00
62694;BME280;48759;52.544;13.418;2023-01-29T08:06:53;101840.28;;;0.98;100.00
62694;BME280;48759;52.544;13.418;2023-01-29T08:09:20;101826.41;;;1.03;100.00
62694;BME280;48759;52.544;13.418;2023-01-29T08:11:48;101830.31;;;0.99;100.00
62694;BME280;48759;52.544;13.418;2023-01-29T08:14:14;101825.09;;;1.20;100.00
62694;BME280;48759;52.544;13.418;2023-01-29T08:16:41;101829.66;;;1.19;100.00
62694;BME280;48759;52.544;13.418;2023-01-29T08:19:08;101834.84;;;0.74;100.00
62694;BME280;48759;52.544;13.418;2023-01-29T08:21:34;101841.75;;;1.37;100.00
62694;BME280;48759;52.544;13.418;2023-01-29T08:24:01;101833.94;;;1.57;100.00
62694;BME280;48759;52.544;13.418;2023-01-29T08:26:28;101830.38;;;1.10;100.00
62694;BME280;48759;52.544;13.418;2023-01-29T08:28:56;101839.47;;;1.44;100.00
62694;BME280;48759;52.544;13.418;2023-01-29T08:31:23;101838.63;;;1.66;100.00
62694;BME280;48759;52.544;13.418;2023-01-29T08:33:49;101837.34;;;1.36;100.00
62694;BME280;48759;52.544;13.418;2023-01-29T08:36:16;101820.78;;;1.17;100.00
62694;BME280;48759;52.544;13.418;2023-01-29T08:38:43;101824.97;;;1.21;100.00
62694;BME280;48759;52.544;13.418;2023-01-29T08:41:09;101829.50;;;0.86;100.00
62694;BME280;48759;52.544;13.418;2023-01-29T08:43:36;101830.16;;;0.65;100.00
62694;BME280;48759;52.544;13.418;2023-01-29T08:46:06;101826.13;;;0.95;100.00
62694;BME280;48759;52.544;13.418;2023-01-29T08:48:32;101823.00;;;1.12;100.00
62694;BME280;48759;52.544;13.418;2023-01-29T08:51:00;101832.81;;;1.02;100.00
62694;BME280;48759;52.544;13.418;2023-01-29T08:53:28;101834.06;;;1.09;100.00
62694;BME280;48759;52.544;13.418;2023-01-29T08:55:55;101823.66;;;1.38;100.00
62694;BME280;48759;52.544;13.418;2023-01-29T08:58:22;101828.78;;;1.19;100.00
62694;BME280;48759;52.544;13.418;2023-01-29T09:00:49;101821.91;;;0.91;100.00
62694;BME280;48759;52.544;13.418;2023-01-29T09:03:17;101816.91;;;1.08;100.00
62694;BME280;48759;52.544;13.418;2023-01-29T09:05:44;101818.00;;;1.06;100.00
62694;BME280;48759;52.544;13.418;2023-01-29T09:08:11;101818.75;;;0.97;100.00
62694;BME280;48759;52.544;13.418;2023-01-29T09:10:38;101817.31;;;1.15;100.00
62694;BME280;48759;52.544;13.418;2023-01-29T09:13:04;101810.09;;;1.27;100.00
62694;BME280;48759;52.544;13.418;2023-01-29T09:15:31;101817.59;;;0.88;100.00
62694;BME280;48759;52.544;13.418;2023-01-29T09:18:02;101818.66;;;0.86;100.00
62694;BME280;48759;52.544;13.418;2023-01-29T09:20:30;101816.25;;;0.94;100.00
62694;BME280;48759;52.544;13.418;2023-01-29T09:22:57;101813.22;;;1.09;100.00
62694;BME280;48759;52.544;13.418;2023-01-29T09:25:24;101816.38;;;1.38;100.00
62694;BME280;48759;52.544;13.418;2023-01-29T09:27:52;101818.84;;;0.71;100.00
62694;BME280;48759;52.544;13.418;2023-01-29T09:30:19;101824.97;;;1.21;100.00
62694;BME280;48759;52.544;13.418;2023-01-29T09:32:46;101809.56;;;1.22;100.00
62694;BME280;48759;52.544;13.418;2023-01-29T09:35:13;101804.94;;;1.46;100.00
62694;BME280;48759;52.544;13.418;2023-01-29T09:37:41;101802.81;;;1.27;100.00
62694;BME280;48759;52.544;13.418;2023-01-29T09:40:19;101813.22;;;1.78;100.00
62694;BME280;48759;52.544;13.418;2023-01-29T09:42:56;101809.78;;;1.65;100.00
62694;BME280;48759;52.544;13.418;2023-01-29T09:45:25;101797.72;;;1.23;100.00
62694;BME280;48759;52.544;13.418;2023-01-29T09:47:55;101789.03;;;1.97;100.00
62694;BME280;48759;52.544;13.418;2023-01-29T09:50:27;101780.66;;;1.78;100.00
62694;BME280;48759;52.544;13.418;2023-01-29T09:52:58;101783.47;;;2.10;100.00
62694;BME280;48759;52.544;13.418;2023-01-29T09:55:28;101773.88;;;1.72;100.00
62694;BME280;48759;52.544;13.418;2023-01-29T09:57:58;101771.53;;;1.68;100.00
62694;BME280;48759;52.544;13.418;2023-01-29T10:00:33;101764.00;;;2.05;100.00
62694;BME280;48759;52.544;13.418;2023-01-29T10:03:26;101763.41;;;2.33;100.00
62694;BME280;48759;52.544;13.418;2023-01-29T10:09:30;101763.78;;;2.40;100.00
62694;BME280;48759;52.544;13.418;2023-01-29T10:12:13;101760.13;;;2.18;100.00
62694;BME280;48759;52.544;13.418;2023-01-29T10:14:51;101749.47;;;2.38;100.00
62694;BME280;48759;52.544;13.418;2023-01-29T10:17:35;101740.34;;;2.39;100.00
62694;BME280;48759;52.544;13.418;2023-01-29T10:20:21;101742.22;;;2.59;100.00
62694;BME280;48759;52.544;13.418;2023-01-29T10:23:06;101762.19;;;2.37;100.00
62694;BME280;48759;52.544;13.418;2023-01-29T10:25:40;101758.91;;;2.11;100.00
62694;BME280;48759;52.544;13.418;2023-01-29T10:28:17;101770.47;;;2.24;100.00
62694;BME280;48759;52.544;13.418;2023-01-29T10:30:48;101774.47;;;2.09;100.00
62694;BME280;48759;52.544;13.418;2023-01-29T10:33:25;101770.28;;;1.94;100.00
62694;BME280;48759;52.544;13.418;2023-01-29T10:35:57;101761.09;;;2.28;100.00
62694;BME280;48759;52.544;13.418;2023-01-29T10:38:41;101754.47;;;2.10;100.00
62694;BME280;48759;52.544;13.418;2023-01-29T10:41:24;101754.88;;;1.83;100.00
62694;BME280;48759;52.544;13.418;2023-01-29T10:44:05;101746.56;;;2.61;100.00
62694;BME280;48759;52.544;13.418;2023-01-29T10:46:47;101739.66;;;2.03;100.00
62694;BME280;48759;52.544;13.418;2023-01-29T10:49:28;101732.63;;;2.76;100.00
62694;BME280;48759;52.544;13.418;2023-01-29T10:52:09;101740.19;;;2.72;100.00
62694;BME280;48759;52.544;13.418;2023-01-29T10:54:59;101728.66;;;2.48;100.00
62694;BME280;48759;52.544;13.418;2023-01-29T10:57:44;101723.94;;;3.02;100.00
62694;BME280;48759;52.544;13.418;2023-01-29T11:00:19;101701.31;;;3.02;100.00
62694;BME280;48759;52.544;13.418;2023-01-29T11:02:48;101701.41;;;2.70;100.00
62694;BME280;48759;52.544;13.418;2023-01-29T11:05:22;101702.38;;;3.10;100.00
62694;BME280;48759;52.544;13.418;2023-01-29T11:07:59;101700.53;;;3.11;100.00
62694;BME280;48759;52.544;13.418;2023-01-29T11:10:29;101683.78;;;2.85;100.00
62694;BME280;48759;52.544;13.418;2023-01-29T11:13:02;101688.06;;;2.88;100.00
62694;BME280;48759;52.544;13.418;2023-01-29T11:15:31;101679.28;;;3.26;100.00
62694;BME280;48759;52.544;13.418;2023-01-29T11:18:07;101680.38;;;2.72;100.00
62694;BME280;48759;52.544;13.418;2023-01-29T11:20:38;101679.34;;;2.84;100.00
62694;BME280;48759;52.544;13.418;2023-01-29T11:23:05;101674.63;;;2.45;100.00
62694;BME280;48759;52.544;13.418;2023-01-29T11:25:51;101672.84;;;2.76;100.00
62694;BME280;48759;52.544;13.418;2023-01-29T11:28:38;101675.50;;;3.38;100.00
62694;BME280;48759;52.544;13.418;2023-01-29T11:31:15;101672.84;;;3.27;100.00
62694;BME280;48759;52.544;13.418;2023-01-29T11:33:43;101672.59;;;3.30;100.00
62694;BME280;48759;52.544;13.418;2023-01-29T11:36:23;101671.94;;;3.77;100.00
62694;BME280;48759;52.544;13.418;2023-01-29T11:39:18;101647.56;;;3.76;100.00
62694;BME280;48759;52.544;13.418;2023-01-29T11:41:51;101652.97;;;3.66;100.00
62694;BME280;48759;52.544;13.418;2023-01-29T11:44:29;101656.38;;;3.59;100.00
62694;BME280;48759;52.544;13.418;2023-01-29T11:47:05;101651.72;;;3.09;100.00
62694;BME280;48759;52.544;13.418;2023-01-29T11:49:36;101647.63;;;2.94;100.00
62694;BME280;48759;52.544;13.418;2023-01-29T11:52:06;101643.13;;;3.84;100.00
62694;BME280;48759;52.544;13.418;2023-01-29T11:54:36;101639.94;;;3.60;100.00
62694;BME280;48759;52.544;13.418;2023-01-29T11:57:03;101643.91;;;4.25;100.00
62694;BME280;48759;52.544;13.418;2023-01-29T11:59:40;101639.88;;;3.41;100.00
62694;BME280;48759;52.544;13.418;2023-01-29T12:02:19;101633.06;;;3.56;100.00
62694;BME280;48759;52.544;13.418;2023-01-29T12:04:47;101624.16;;;3.24;100.00
62694;BME280;48759;52.544;13.418;2023-01-29T12:07:16;101619.44;;;3.56;100.00
62694;BME280;48759;52.544;13.418;2023-01-29T12:09:55;101618.63;;;3.84;100.00
62694;BME280;48759;52.544;13.418;2023-01-29T12:12:35;101610.97;;;3.59;100.00
62694;BME280;48759;52.544;13.418;2023-01-29T12:15:25;101604.13;;;3.74;100.00
62694;BME280;48759;52.544;13.418;2023-01-29T12:18:03;101603.41;;;3.63;100.00
62694;BME280;48759;52.544;13.418;2023-01-29T12:20:36;101599.59;;;3.35;100.00
62694;BME280;48759;52.544;13.418;2023-01-29T12:23:13;101606.63;;;3.87;100.00
62694;BME280;48759;52.544;13.418;2023-01-29T12:25:51;101603.13;;;3.66;100.00
62694;BME280;48759;52.544;13.418;2023-01-29T12:31:26;101594.25;;;3.73;100.00
62694;BME280;48759;52.544;13.418;2023-01-29T12:34:00;101592.56;;;4.01;100.00
62694;BME280;48759;52.544;13.418;2023-01-29T12:36:33;101567.34;;;3.99;100.00
62694;BME280;48759;52.544;13.418;2023-01-29T12:39:02;101562.03;;;3.98;100.00
62694;BME280;48759;52.544;13.418;2023-01-29T12:41:36;101570.50;;;3.85;100.00
62694;BME280;48759;52.544;13.418;2023-01-29T12:44:13;101561.88;;;3.90;100.00
62694;BME280;48759;52.544;13.418;2023-01-29T12:46:46;101566.19;;;4.02;100.00
62694;BME280;48759;52.544;13.418;2023-01-29T12:55:48;101574.13;;;2.75;100.00
62694;BME280;48759;52.544;13.418;2023-01-29T12:58:34;101571.59;;;2.83;100.00
62694;BME280;48759;52.544;13.418;2023-01-29T13:01:12;101561.94;;;2.69;100.00
62694;BME280;48759;52.544;13.418;2023-01-29T13:04:00;101574.03;;;3.17;100.00
62694;BME280;48759;52.544;13.418;2023-01-29T13:06:51;101563.69;;;3.10;100.00
62694;BME280;48759;52.544;13.418;2023-01-29T13:09:33;101562.25;;;2.76;100.00
62694;BME280;48759;52.544;13.418;2023-01-29T13:12:17;101559.91;;;2.41;100.00
62694;BME280;48759;52.544;13.418;2023-01-29T13:14:53;101554.47;;;2.41;100.00